createdAt,value
2023-01-02T00:00:21.312Z,100067.13
2023-01-02T00:02:48.271Z,100058.13
2023-01-02T00:05:14.870Z,100058.47
2023-01-02T00:07:41.583Z,100061.13
2023-01-02T00:10:08.504Z,100056.63
2023-01-02T00:12:35.277Z,100045.97
2023-01-02T00:15:02.953Z,100055.13
2023-01-02T00:17:29.315Z,100052.66
2023-01-02T00:19:56.809Z,100044.97
2023-01-02T00:22:23.166Z,100041.47
2023-01-02T00:24:49.722Z,100044.97
2023-01-02T00:27:16.082Z,100050.66
2023-01-02T00:29:42.452Z,100045.81
2023-01-02T00:32:08.812Z,100032.81
2023-01-02T00:34:35.194Z,100042.94
2023-01-02T00:37:01.551Z,100033.09
2023-01-02T00:39:29.579Z,100031.09
2023-01-02T00:41:56.029Z,100024.13
2023-01-02T00:44:22.404Z,100021.94
2023-01-02T00:46:48.803Z,100020.09
2023-01-02T00:49:15.277Z,100014.41
2023-01-02T00:51:41.763Z,100019.09
2023-01-02T00:54:08.166Z,100014.75
2023-01-02T00:56:34.601Z,100012.75
2023-01-02T00:59:01.104Z,100022.22
2023-01-02T01:01:27.782Z,100021.69
2023-01-02T01:03:54.431Z,100017.72
2023-01-02T01:06:21.596Z,100021.75
2023-01-02T01:08:48.035Z,100018.75
2023-01-02T01:11:16.616Z,100014.03
2023-01-02T01:13:43.172Z,100020.84
2023-01-02T01:16:12.991Z,100015.00
2023-01-02T01:18:39.947Z,100013.53
2023-01-02T01:21:08.111Z,100017.00
2023-01-02T01:23:34.493Z,100013.31
2023-01-02T01:26:05.121Z,100017.00
2023-01-02T01:28:31.666Z,100013.16
2023-01-02T01:31:13.575Z,100012.00
2023-01-02T01:33:41.033Z,100006.00
2023-01-02T01:36:13.498Z,99997.31
2023-01-02T01:38:40.444Z,99999.00
2023-01-02T01:41:07.266Z,99994.03
2023-01-02T01:43:46.308Z,99993.81
2023-01-02T01:46:29.274Z,99991.16
2023-01-02T01:49:03.911Z,99988.97
2023-01-02T01:51:33.905Z,99983.97
2023-01-02T01:54:07.444Z,99981.31
2023-01-02T01:56:38.680Z,99980.84
2023-01-02T01:59:05.555Z,99981.69
2023-01-02T02:01:32.408Z,99991.72
2023-01-02T02:03:59.462Z,99983.72
2023-01-02T02:06:26.086Z,99988.19
2023-01-02T02:08:59.541Z,99995.38
2023-01-02T02:11:27.162Z,99985.72
2023-01-02T02:14:00.910Z,99991.06
2023-01-02T02:16:45.215Z,99990.41
2023-01-02T02:19:29.129Z,99987.44
2023-01-02T02:21:55.427Z,99980.28
2023-01-02T02:24:46.548Z,99977.78
2023-01-02T02:27:34.720Z,99975.41
2023-01-02T02:30:35.273Z,99974.59
2023-01-02T02:33:12.340Z,99972.09
2023-01-02T02:35:53.155Z,99961.78
2023-01-02T02:38:25.480Z,99966.28
2023-01-02T02:41:02.448Z,99966.28
2023-01-02T02:44:01.176Z,99976.84
2023-01-02T02:46:50.776Z,99978.50
2023-01-02T02:49:42.740Z,99973.47
2023-01-02T02:52:30.572Z,99971.44
2023-01-02T02:55:05.326Z,99963.09
2023-01-02T02:57:33.113Z,99961.41
2023-01-02T02:59:59.743Z,99959.78
2023-01-02T03:02:26.227Z,99953.63
2023-01-02T03:05:03.221Z,99951.78
2023-01-02T03:07:48.117Z,99951.72
2023-01-02T03:10:34.716Z,99961.06
2023-01-02T03:13:18.769Z,99958.75
2023-01-02T03:16:02.352Z,99955.09
2023-01-02T03:18:34.950Z,99959.06
2023-01-02T03:21:14.487Z,99962.75
2023-01-02T03:23:44.535Z,99956.09
2023-01-02T03:26:13.377Z,99958.09
2023-01-02T03:28:42.645Z,99945.44
2023-01-02T03:31:11.511Z,99948.75
2023-01-02T03:33:46.384Z,99939.28
2023-01-02T03:36:19.901Z,99947.44
2023-01-02T03:38:55.015Z,99940.44
2023-01-02T03:41:25.637Z,99929.13
2023-01-02T03:43:56.975Z,99920.91
2023-01-02T03:46:33.283Z,99915.44
2023-01-02T03:49:16.786Z,99908.44
2023-01-02T03:51:43.196Z,99907.44
2023-01-02T03:54:11.003Z,99897.88
2023-01-02T03:56:57.575Z,99889.38
2023-01-02T03:59:30.927Z,99889.31
2023-01-02T04:02:06.975Z,99880.81
2023-01-02T04:04:51.240Z,99885.06
2023-01-02T04:07:34.306Z,99890.56
2023-01-02T04:10:01.360Z,99897.44
2023-01-02T04:12:32.368Z,99888.31
2023-01-02T04:15:07.371Z,99893.63
2023-01-02T04:17:38.987Z,99889.03
2023-01-02T04:20:10.554Z,99886.25
2023-01-02T04:22:44.031Z,99887.28
2023-01-02T04:25:14.391Z,99895.78
2023-01-02T04:27:55.484Z,99890.72
2023-01-02T04:30:21.903Z,99895.38
2023-01-02T04:32:48.743Z,99896.41
2023-01-02T04:35:19.265Z,99905.03
2023-01-02T04:37:46.785Z,99899.22
2023-01-02T04:40:24.603Z,99905.03
2023-01-02T04:42:51.843Z,99902.78
2023-01-02T04:45:18.548Z,99902.13
2023-01-02T04:47:45.030Z,99894.25
2023-01-02T04:50:11.522Z,99890.00
2023-01-02T04:52:37.897Z,99894.50
2023-01-02T04:55:06.225Z,99895.16
2023-01-02T04:57:32.586Z,99904.78
2023-01-02T04:59:58.933Z,99892.84
2023-01-02T05:02:25.407Z,99893.84
2023-01-02T05:04:51.881Z,99895.91
2023-01-02T05:07:18.345Z,99898.56
2023-01-02T05:09:44.688Z,99913.19
2023-01-02T05:12:11.132Z,99906.72
2023-01-02T05:14:37.482Z,99899.56
2023-01-02T05:17:03.889Z,99899.19
2023-01-02T05:19:30.316Z,99917.91
2023-01-02T05:22:15.587Z,99929.75
2023-01-02T05:24:41.953Z,99916.13
2023-01-02T05:27:08.327Z,99920.13
2023-01-02T05:29:34.785Z,99916.00
2023-01-02T05:32:01.295Z,99919.16
2023-01-02T05:34:27.635Z,99923.50
2023-01-02T05:36:54.066Z,99921.53
2023-01-02T05:39:20.513Z,99917.66
2023-01-02T05:41:46.880Z,99925.50
2023-01-02T05:44:13.452Z,99921.97
2023-01-02T05:46:40.555Z,99928.63
2023-01-02T05:49:08.164Z,99936.63
2023-01-02T05:51:34.583Z,99938.63
2023-01-02T05:54:01.349Z,99927.00
2023-01-02T05:56:29.381Z,99918.03
2023-01-02T05:58:56.147Z,99911.00
2023-01-02T06:01:25.838Z,99913.38
2023-01-02T06:03:54.938Z,99925.03
2023-01-02T06:06:24.923Z,99924.00
2023-01-02T06:08:51.469Z,99921.22
2023-01-02T06:11:17.932Z,99933.69
2023-01-02T06:13:44.343Z,99945.31
2023-01-02T06:16:11.432Z,99942.16
2023-01-02T06:18:39.424Z,99939.97
2023-01-02T06:21:08.226Z,99939.50
2023-01-02T06:23:35.022Z,99944.34
2023-01-02T06:26:10.925Z,99942.03
2023-01-02T06:28:38.364Z,99940.53
2023-01-02T06:31:16.029Z,99943.38
2023-01-02T06:33:43.002Z,99954.53
2023-01-02T06:36:15.195Z,99939.91
2023-01-02T06:38:42.182Z,99947.56
2023-01-02T06:41:09.404Z,99951.88
2023-01-02T06:43:46.976Z,99952.56
2023-01-02T06:46:15.028Z,99943.75
2023-01-02T06:48:41.727Z,99951.06
2023-01-02T06:51:10.619Z,99947.09
2023-01-02T06:53:39.481Z,99937.81
2023-01-02T06:56:07.459Z,99945.13
2023-01-02T06:58:35.434Z,99940.63
2023-01-02T07:01:10.987Z,99946.81
2023-01-02T07:03:38.021Z,99945.13
2023-01-02T07:06:22.723Z,99951.31
2023-01-02T07:08:49.519Z,99962.44
2023-01-02T07:11:22.031Z,99943.47
2023-01-02T07:13:51.158Z,99945.31
2023-01-02T07:16:20.261Z,99952.47
2023-01-02T07:18:46.809Z,99955.28
2023-01-02T07:21:14.859Z,99958.78
2023-01-02T07:23:42.408Z,99974.06
2023-01-02T07:26:09.009Z,99971.56
2023-01-02T07:28:36.329Z,99973.41
2023-01-02T07:31:06.848Z,99987.34
2023-01-02T07:33:35.572Z,99981.06
2023-01-02T07:36:05.459Z,99989.50
2023-01-02T07:38:32.332Z,99990.00
2023-01-02T07:40:58.954Z,99989.34
2023-01-02T07:43:25.899Z,99994.00
2023-01-02T07:45:52.465Z,99995.81
2023-01-02T07:48:19.293Z,99985.03
2023-01-02T07:50:46.273Z,99995.00
2023-01-02T07:53:13.140Z,99991.19
2023-01-02T07:55:39.551Z,99982.00
2023-01-02T07:58:05.932Z,99991.31
2023-01-02T08:00:32.296Z,99995.63
2023-01-02T08:02:58.644Z,100001.47
2023-01-02T08:05:25.043Z,100004.59
2023-01-02T08:07:51.404Z,100000.63
2023-01-02T08:10:17.749Z,100002.94
2023-01-02T08:12:44.119Z,100006.59
2023-01-02T08:15:10.914Z,99997.78
2023-01-02T08:17:37.333Z,100010.91
2023-01-02T08:20:08.023Z,100010.22
2023-01-02T08:22:35.212Z,100018.56
2023-01-02T08:25:01.689Z,100012.25
2023-01-02T08:27:28.472Z,100013.91
2023-01-02T08:29:54.924Z,100011.06
2023-01-02T08:32:21.473Z,100012.88
2023-01-02T08:34:47.964Z,100016.38
2023-01-02T08:37:14.432Z,100026.50
2023-01-02T08:39:40.932Z,100023.19
2023-01-02T08:42:07.407Z,100024.19
2023-01-02T08:44:34.723Z,100026.00
2023-01-02T08:47:01.195Z,100025.00
2023-01-02T08:49:27.580Z,100022.34
2023-01-02T08:51:53.960Z,100026.84
2023-01-02T08:54:20.321Z,100029.66
2023-01-02T08:56:47.049Z,100033.34
2023-01-02T08:59:13.452Z,100019.53
2023-01-02T09:01:40.747Z,100021.88
2023-01-02T09:04:12.387Z,100029.81
2023-01-02T09:06:39.067Z,100031.00
2023-01-02T09:09:11.008Z,100032.50
2023-01-02T09:11:44.307Z,100035.16
2023-01-02T09:14:10.665Z,100036.47
2023-01-02T09:16:37.017Z,100032.53
2023-01-02T09:19:03.936Z,100033.50
2023-01-02T09:21:30.432Z,100028.84
2023-01-02T09:23:57.098Z,100014.22
2023-01-02T09:26:23.623Z,100028.03
2023-01-02T09:28:50.068Z,100021.03
2023-01-02T09:31:17.460Z,100046.78
2023-01-02T09:33:45.368Z,100033.84
2023-01-02T09:36:13.843Z,100040.81
2023-01-02T09:38:40.377Z,100053.13
2023-01-02T09:41:21.733Z,100047.81
2023-01-02T09:43:51.874Z,100049.47
2023-01-02T09:46:32.426Z,100051.13
2023-01-02T09:49:01.407Z,100054.47
2023-01-02T09:51:28.367Z,100047.16
2023-01-02T09:53:54.786Z,100049.97
2023-01-02T09:56:33.894Z,100044.53
2023-01-02T09:59:21.190Z,100041.50
2023-01-02T10:02:32.167Z,100046.19
2023-01-02T10:05:20.560Z,100046.19
2023-01-02T10:08:17.902Z,100034.22
2023-01-02T10:10:50.654Z,100021.06
2023-01-02T10:13:44.225Z,100021.91
2023-01-02T10:16:21.590Z,100025.25
2023-01-02T10:18:52.591Z,100024.88
2023-01-02T10:21:26.660Z,100037.19
2023-01-02T10:24:00.164Z,100032.03
2023-01-02T10:26:35.023Z,100022.25
2023-01-02T10:29:16.418Z,100022.41
2023-01-02T10:31:49.497Z,100021.75
2023-01-02T10:34:18.472Z,100016.41
2023-01-02T10:36:46.433Z,100023.91
2023-01-02T10:39:18.733Z,100018.59
2023-01-02T10:41:52.252Z,100014.94
2023-01-02T10:44:30.905Z,100020.25
2023-01-02T10:46:59.186Z,100015.28
2023-01-02T10:49:26.464Z,100012.28
2023-01-02T10:52:07.196Z,100013.94
2023-01-02T10:54:55.024Z,100000.31
2023-01-02T10:57:46.544Z,99996.66
2023-01-02T11:00:24.140Z,100010.63
2023-01-02T11:03:00.156Z,99999.31
2023-01-02T11:05:29.085Z,99995.84
2023-01-02T11:07:56.471Z,100009.13
2023-01-02T11:10:32.647Z,100008.94
2023-01-02T11:13:16.175Z,100001.31
2023-01-02T11:15:48.511Z,99999.00
2023-01-02T11:18:27.011Z,99994.34
2023-01-02T11:21:00.029Z,99984.88
2023-01-02T11:23:26.426Z,99995.34
2023-01-02T11:25:54.400Z,99990.66
2023-01-02T11:28:25.371Z,99991.00
2023-01-02T11:31:00.239Z,99992.34
2023-01-02T11:33:30.457Z,99998.16
2023-01-02T11:36:05.210Z,99996.66
2023-01-02T11:38:40.764Z,99996.00
2023-01-02T11:41:20.635Z,99981.53
2023-01-02T11:43:59.363Z,99981.38
2023-01-02T11:46:37.571Z,99973.88
2023-01-02T11:49:13.884Z,99982.88
2023-01-02T11:51:40.981Z,99986.38
2023-01-02T11:54:13.832Z,99989.34
2023-01-02T11:56:43.527Z,99988.69
2023-01-02T11:59:24.748Z,99995.00
2023-01-02T12:02:19.625Z,99999.47
2023-01-02T12:04:46.290Z,99996.81
2023-01-02T12:07:43.287Z,99981.53
2023-01-02T12:10:40.849Z,99990.69
2023-01-02T12:13:27.687Z,99992.31
2023-01-02T12:16:18.505Z,99981.00
2023-01-02T12:19:16.706Z,99987.16
2023-01-02T12:22:22.998Z,99976.69
2023-01-02T12:25:01.785Z,99982.66
2023-01-02T12:28:16.637Z,99989.31
2023-01-02T12:31:02.275Z,99986.31
2023-01-02T12:33:41.763Z,99973.69
2023-01-02T12:36:17.151Z,99968.69
2023-01-02T12:39:01.856Z,99969.50
2023-01-02T12:42:01.849Z,99977.47
2023-01-02T12:44:50.387Z,99983.00
2023-01-02T12:47:41.159Z,99969.84
2023-01-02T12:50:27.667Z,99977.66
2023-01-02T12:53:21.342Z,99974.34
2023-01-02T12:55:58.354Z,99977.00
2023-01-02T12:58:49.188Z,99987.31
2023-01-02T13:01:25.744Z,99992.97
2023-01-02T13:04:01.794Z,99990.31
2023-01-02T13:06:52.547Z,99978.31
2023-01-02T13:09:35.027Z,99977.84
2023-01-02T13:12:14.444Z,99975.84
2023-01-02T13:14:46.531Z,99977.69
2023-01-02T13:17:44.999Z,99968.88
2023-01-02T13:20:33.324Z,99978.03
2023-01-02T13:23:27.566Z,99972.66
2023-01-02T13:25:58.537Z,99979.34
2023-01-02T13:28:25.013Z,99982.00
2023-01-02T13:31:05.256Z,99985.00
2023-01-02T13:33:40.553Z,99991.63
2023-01-02T13:36:22.202Z,100005.28
2023-01-02T13:38:50.263Z,100000.81
2023-01-02T13:41:18.616Z,100007.31
2023-01-02T13:44:05.288Z,100005.63
2023-01-02T13:47:02.627Z,100002.94
2023-01-02T13:49:26.592Z,100000.59
2023-01-02T13:51:59.803Z,100009.59
2023-01-02T13:54:36.383Z,100005.94
2023-01-02T13:57:36.881Z,100014.72
2023-01-02T14:00:15.425Z,100006.47
2023-01-02T14:02:42.133Z,100012.94
2023-01-02T14:05:47.699Z,100018.59
2023-01-02T14:08:30.495Z,100021.25
2023-01-02T14:11:07.112Z,100024.56
2023-01-02T14:13:42.615Z,100016.25
2023-01-02T14:16:27.627Z,100028.59
2023-01-02T14:19:12.292Z,100034.22
2023-01-02T14:21:57.705Z,100035.88
2023-01-02T14:24:30.152Z,100030.88
2023-01-02T14:27:00.514Z,100039.88
2023-01-02T14:29:28.442Z,100048.84
2023-01-02T14:32:08.787Z,100039.34
2023-01-02T14:34:44.852Z,100043.69
2023-01-02T14:37:12.071Z,100051.84
2023-01-02T14:39:39.018Z,100049.06
2023-01-02T14:42:41.224Z,100062.47
2023-01-02T14:45:16.067Z,100060.16
2023-01-02T14:47:47.059Z,100066.81
2023-01-02T14:50:20.063Z,100054.16
2023-01-02T14:52:52.993Z,100052.53
2023-01-02T14:55:23.564Z,100055.66
2023-01-02T14:57:52.691Z,100049.66
2023-01-02T15:00:27.320Z,100047.50
2023-01-02T15:02:59.372Z,100044.44
2023-01-02T15:06:01.507Z,100047.78
2023-01-02T15:08:41.439Z,100046.13
2023-01-02T15:11:41.277Z,100061.31
2023-01-02T15:14:12.927Z,100054.88
2023-01-02T15:16:47.820Z,100058.84
2023-01-02T15:19:27.569Z,100059.47
2023-01-02T15:21:55.173Z,100055.97
2023-01-02T15:24:32.054Z,100050.84
2023-01-02T15:27:25.190Z,100062.13
2023-01-02T15:29:54.997Z,100073.78
2023-01-02T15:32:24.503Z,100074.06
2023-01-02T15:34:51.270Z,100077.06
2023-01-02T15:37:20.775Z,100083.75
2023-01-02T15:39:50.081Z,100085.53
2023-01-02T15:42:36.776Z,100086.28
2023-01-02T15:45:13.916Z,100094.41
2023-01-02T15:47:45.522Z,100093.13
2023-01-02T15:50:20.617Z,100099.47
2023-01-02T15:52:49.990Z,100091.66
2023-01-02T15:55:18.237Z,100103.59
2023-01-02T15:57:56.089Z,100105.66
2023-01-02T16:00:37.247Z,100103.91
2023-01-02T16:03:04.272Z,100100.75
2023-01-02T16:05:43.332Z,100089.75
2023-01-02T16:08:20.835Z,100101.09
2023-01-02T16:10:51.322Z,100103.22
2023-01-02T16:13:46.978Z,100112.69
2023-01-02T16:16:15.822Z,100112.66
2023-01-02T16:18:46.934Z,100119.31
2023-01-02T16:21:15.568Z,100127.56
2023-01-02T16:23:51.101Z,100130.78
2023-01-02T16:26:20.456Z,100137.69
2023-01-02T16:28:50.519Z,100138.66
2023-01-02T16:31:21.019Z,100139.97
2023-01-02T16:33:47.547Z,100143.94
2023-01-02T16:36:14.061Z,100142.88
2023-01-02T16:38:48.045Z,100140.78
2023-01-02T16:41:47.937Z,100151.16
2023-01-02T16:44:16.895Z,100143.34
2023-01-02T16:46:45.232Z,100161.63
2023-01-02T16:49:14.649Z,100159.56
2023-01-02T16:51:44.767Z,100160.28
2023-01-02T16:54:15.467Z,100170.63
2023-01-02T16:56:42.099Z,100167.13
2023-01-02T16:59:08.611Z,100167.16
2023-01-02T17:01:35.051Z,100175.47
2023-01-02T17:04:01.478Z,100166.69
2023-01-02T17:06:27.910Z,100171.06
2023-01-02T17:08:54.300Z,100168.53
2023-01-02T17:11:23.194Z,100173.84
2023-01-02T17:13:51.268Z,100189.09
2023-01-02T17:16:18.528Z,100184.13
2023-01-02T17:18:45.123Z,100184.13
2023-01-02T17:21:11.942Z,100188.53
2023-01-02T17:23:38.602Z,100190.53
2023-01-02T17:26:05.494Z,100187.75
2023-01-02T17:28:31.939Z,100195.81
2023-01-02T17:30:58.370Z,100199.22
2023-01-02T17:33:24.899Z,100187.59
2023-01-02T17:35:51.631Z,100187.88
2023-01-02T17:38:18.346Z,100195.06
2023-01-02T17:40:44.874Z,100191.50
2023-01-02T17:43:11.257Z,100199.81
2023-01-02T17:45:37.763Z,100203.97
2023-01-02T17:48:11.064Z,100200.03
2023-01-02T17:50:38.433Z,100205.44
2023-01-02T17:53:04.793Z,100194.59
2023-01-02T17:55:31.225Z,100211.69
2023-01-02T17:58:00.333Z,100193.97
2023-01-02T18:00:26.984Z,100204.66
2023-01-02T18:02:53.443Z,100209.31
2023-01-02T18:05:21.098Z,100196.59
2023-01-02T18:07:47.552Z,100207.63
2023-01-02T18:10:19.608Z,100205.63
2023-01-02T18:12:47.278Z,100197.94
2023-01-02T18:15:14.930Z,100199.56
2023-01-02T18:17:41.518Z,100188.91
2023-01-02T18:20:16.640Z,100196.84
2023-01-02T18:22:48.970Z,100199.69
2023-01-02T18:25:27.179Z,100199.94
2023-01-02T18:28:05.126Z,100202.34
2023-01-02T18:30:31.545Z,100210.34
2023-01-02T18:33:10.953Z,100210.34
2023-01-02T18:38:39.631Z,100214.72
2023-01-02T18:41:27.184Z,100203.97
2023-01-02T18:44:01.861Z,100207.47
2023-01-02T18:47:02.092Z,100199.69
2023-01-02T18:49:30.975Z,100208.97
2023-01-02T18:52:15.567Z,100195.13
2023-01-02T18:54:45.686Z,100196.59
2023-01-02T18:57:15.198Z,100202.41
2023-01-02T18:59:47.539Z,100208.00
2023-01-02T19:02:24.678Z,100206.69
2023-01-02T19:04:51.693Z,100207.41
2023-01-02T19:07:33.065Z,100207.06
2023-01-02T19:10:37.357Z,100202.72
2023-01-02T19:13:11.750Z,100207.78
2023-01-02T19:15:42.018Z,100201.47
2023-01-02T19:18:14.897Z,100203.72
2023-01-02T19:20:45.432Z,100205.63
2023-01-02T19:23:29.639Z,100203.41
2023-01-02T19:26:00.546Z,100204.44
2023-01-02T19:28:29.193Z,100205.25
2023-01-02T19:30:56.266Z,100208.16
2023-01-02T19:33:47.976Z,100198.50
2023-01-02T19:36:22.672Z,100211.44
2023-01-02T19:38:50.940Z,100208.72
2023-01-02T19:41:37.394Z,100207.41
2023-01-02T19:44:03.807Z,100217.13
2023-01-02T19:46:30.225Z,100199.91
2023-01-02T19:48:56.679Z,100211.63
2023-01-02T19:51:23.111Z,100213.81
2023-01-02T19:53:49.472Z,100210.19
2023-01-02T19:56:16.139Z,100219.75
2023-01-02T19:58:42.515Z,100216.75
2023-01-02T20:01:08.924Z,100220.44
2023-01-02T20:03:35.328Z,100217.38
2023-01-02T20:06:02.645Z,100209.94
2023-01-02T20:08:29.072Z,100221.81
2023-01-02T20:10:55.418Z,100240.84
2023-01-02T20:13:21.775Z,100254.00
2023-01-02T20:15:48.377Z,100273.31
2023-01-02T20:18:17.820Z,100281.94
2023-01-02T20:20:44.285Z,100303.47
2023-01-02T20:23:10.742Z,100308.75
2023-01-02T20:25:37.171Z,100342.34
2023-01-02T20:28:04.164Z,100374.25
2023-01-02T20:30:30.557Z,100369.81
2023-01-02T20:32:56.951Z,100398.47
2023-01-02T20:35:23.464Z,100360.91
2023-01-02T20:37:49.836Z,100415.66
2023-01-02T20:40:16.563Z,100386.97
2023-01-02T20:42:43.106Z,100410.38
2023-01-02T20:45:09.991Z,100412.19
2023-01-02T20:47:37.109Z,100439.66
2023-01-02T20:50:04.538Z,100414.63
2023-01-02T20:52:30.927Z,100430.91
2023-01-02T20:54:57.401Z,100444.06
2023-01-02T20:57:24.029Z,100440.72
2023-01-02T20:59:50.584Z,100462.22
2023-01-02T21:02:17.020Z,100441.59
2023-01-02T21:04:43.539Z,100451.91
2023-01-02T21:07:10.102Z,100461.84
2023-01-02T21:09:36.526Z,100445.22
2023-01-02T21:12:03.019Z,100456.69
2023-01-02T21:14:35.468Z,100459.50
2023-01-02T21:17:03.903Z,100468.16
2023-01-02T21:19:30.251Z,100482.41
2023-01-02T21:21:56.755Z,100503.22
2023-01-02T21:24:23.139Z,100497.50
2023-01-02T21:26:49.476Z,100497.09
2023-01-02T21:29:15.845Z,100490.38
2023-01-02T21:31:42.228Z,100492.19
2023-01-02T21:34:08.654Z,100498.06
2023-01-02T21:36:36.973Z,100513.44
2023-01-02T21:39:03.399Z,100513.72
2023-01-02T21:41:48.475Z,100523.19
2023-01-02T21:44:14.912Z,100519.84
2023-01-02T21:46:41.416Z,100531.03
2023-01-02T21:49:08.140Z,100535.75
2023-01-02T21:51:34.562Z,100546.66
2023-01-02T21:54:00.930Z,100543.03
2023-01-02T21:56:27.457Z,100542.75
2023-01-02T21:58:55.023Z,100538.69
2023-01-02T22:01:21.521Z,100539.69
2023-01-02T22:03:48.253Z,100546.78
2023-01-02T22:06:14.647Z,100546.78
2023-01-02T22:08:41.150Z,100546.25
2023-01-02T22:11:26.412Z,100544.72
2023-01-02T22:13:52.957Z,100543.63
2023-01-02T22:16:19.355Z,100555.88
2023-01-02T22:18:46.220Z,100561.19
2023-01-02T22:21:12.715Z,100563.13
2023-01-02T22:23:39.133Z,100573.91
2023-01-02T22:26:05.675Z,100569.56
2023-01-02T22:28:32.246Z,100579.03
2023-01-02T22:30:58.618Z,100584.50
2023-01-02T22:33:25.090Z,100585.75
2023-01-02T22:35:51.458Z,100593.28
2023-01-02T22:38:17.868Z,100587.72
2023-01-02T22:40:44.461Z,100593.81
2023-01-02T22:43:15.658Z,100599.69
2023-01-02T22:45:48.748Z,100597.31
2023-01-02T22:48:17.339Z,100598.03
2023-01-02T22:50:46.269Z,100606.41
2023-01-02T22:53:28.409Z,100606.38
2023-01-02T22:55:55.124Z,100604.72
2023-01-02T22:58:22.113Z,100614.47
2023-01-02T23:00:57.245Z,100621.44
2023-01-02T23:03:23.762Z,100621.19
2023-01-02T23:05:50.143Z,100609.44
2023-01-02T23:08:16.684Z,100628.72
2023-01-02T23:10:43.079Z,100612.81
2023-01-02T23:13:09.485Z,100617.41
2023-01-02T23:15:36.049Z,100642.66
2023-01-02T23:18:20.893Z,100644.09
2023-01-02T23:20:47.269Z,100633.47
2023-01-02T23:23:13.707Z,100630.41
2023-01-02T23:25:43.293Z,100644.38
2023-01-02T23:28:10.043Z,100628.72
2023-01-02T23:30:39.952Z,100641.84
2023-01-02T23:33:06.488Z,100626.78
2023-01-02T23:35:32.935Z,100634.31
2023-01-02T23:37:59.276Z,100623.84
2023-01-02T23:40:28.185Z,100633.75
2023-01-02T23:42:58.617Z,100640.59
2023-01-02T23:45:24.995Z,100651.50
2023-01-02T23:47:51.455Z,100666.56
2023-01-02T23:50:18.056Z,100662.53
2023-01-02T23:52:44.610Z,100665.88
2023-01-02T23:55:11.306Z,100677.88
2023-01-02T23:57:37.747Z,100685.31
